WetterOnline ( https://www.wetteronline.de )

Wetter aktuell Waiblingen

Aktuelles Wetter: Schnarrenberg/Stuttgart (315m)

6-stündlich | Neueste Meldungen
Ortszeit Temperatur Wetter
Fr, 07.10. 14:00 19.1° C leicht bewölkt
Fr, 07.10. 8:00 11.4° C bedeckt
Fr, 07.10. 2:00 11.8° C bedeckt
Do, 06.10. 20:00 15.4° C bedeckt
Do, 06.10. 14:00 16.7° C wolkig
Do, 06.10. 8:00 14.0° C bedeckt
Do, 06.10. 2:00 14.3° C leicht bewölkt
Mi, 05.10. 20:00 20.6° C wolkig
Ortszeit Temperatur Wetter
Fr, 07.10. 15:00 19.5° C leicht bewölkt
Fr, 07.10. 14:50 19.5° C leicht bewölkt
Fr, 07.10. 14:40 19.3° C wolkig
Fr, 07.10. 14:30 19.3° C wolkig
Fr, 07.10. 14:20 19.3° C wolkig
Fr, 07.10. 14:10 19.0° C bewölkt
Fr, 07.10. 14:00 19.1° C leicht bewölkt
Fr, 07.10. 13:30 18.9° C wolkig
Fr, 07.10. 13:00 19.1° C leicht bewölkt
Fr, 07.10. 12:30 18.2° C wolkig
Fr, 07.10. 12:00 18.2° C leicht bewölkt
Ortszeit Relative Feuchte Sichtweite
Fr, 07.10. 14:00 65% 45 km
Fr, 07.10. 8:00 86% 40 km
Fr, 07.10. 2:00 86% 40 km
Do, 06.10. 20:00 69% 55 km
Do, 06.10. 14:00 59% 55 km
Do, 06.10. 8:00 82% 45 km
Do, 06.10. 2:00 77% 50 km
Mi, 05.10. 20:00 47% >70 km
Ortszeit Relative Feuchte Sichtweite
Fr, 07.10. 15:00 64% 55 km
Fr, 07.10. 14:50 64% -
Fr, 07.10. 14:40 65% -
Fr, 07.10. 14:30 65% 40 km
Fr, 07.10. 14:20 65% -
Fr, 07.10. 14:10 65% -
Fr, 07.10. 14:00 65% 45 km
Fr, 07.10. 13:30 65% 40 km
Fr, 07.10. 13:00 64% 50 km
Fr, 07.10. 12:30 64% 45 km
Fr, 07.10. 12:00 66% 55 km
Ortszeit Niederschlagsmenge Niederschlagsart
Fr, 07.10. 14:00 0.0 l/m2 in 6 Std. -
Fr, 07.10. 8:00 0.0 l/m2 in 12 Std. -
Fr, 07.10. 2:00 0.0 l/m2 in 6 Std. -
Do, 06.10. 20:00 0.0 l/m2 in 12 Std. -
Do, 06.10. 14:00 0.0 l/m2 in 6 Std. -
Do, 06.10. 8:00 0.0 l/m2 in 12 Std. -
Do, 06.10. 2:00 0.0 l/m2 in 6 Std. -
Mi, 05.10. 20:00 0.0 l/m2 in 12 Std. -
Ortszeit Niederschlagsmenge Niederschlagsart
Fr, 07.10. 15:00 0.0 l/m2 in 1 Std. -
Fr, 07.10. 14:50 keine Meldung -
Fr, 07.10. 14:40 keine Meldung -
Fr, 07.10. 14:30 0.0 l/m2 in 1 Std. -
Fr, 07.10. 14:20 keine Meldung -
Fr, 07.10. 14:10 keine Meldung -
Fr, 07.10. 14:00 0.0 l/m2 in 1 Std. -
Fr, 07.10. 13:30 0.0 l/m2 in 1 Std. -
Fr, 07.10. 13:00 0.0 l/m2 in 1 Std. -
Fr, 07.10. 12:30 0.0 l/m2 in 1 Std. -
Fr, 07.10. 12:00 0.0 l/m2 in 1 Std. -
Ortszeit Stärke Spitze Richtung
km/h Bft. km/h Grad Sektor
Fr, 07.10. 14:00 15 3 24 130° SO
Fr, 07.10. 8:00 4 1 7 30° NO
Fr, 07.10. 2:00 4 1 11 360° N
Do, 06.10. 20:00 4 1 22 40° NO
Do, 06.10. 14:00 7 2 22 340° N
Do, 06.10. 8:00 6 1 17 250° W
Do, 06.10. 2:00 13 3 20 170° S
Mi, 05.10. 20:00 9 2 28 200° S
Ortszeit Stärke Spitze Richtung
km/h Bft. km/h Grad Sektor
Fr, 07.10. 15:00 14 3 25 130° SO
Fr, 07.10. 14:50 14 3 - 130° SO
Fr, 07.10. 14:40 14 3 - 140° SO
Fr, 07.10. 14:30 18 3 25 140° SO
Fr, 07.10. 14:20 18 3 - 140° SO
Fr, 07.10. 14:10 14 3 - 130° SO
Fr, 07.10. 14:00 15 3 24 130° SO
Fr, 07.10. 13:30 13 3 20 140° SO
Fr, 07.10. 13:00 9 2 19 120° SO
Fr, 07.10. 12:30 7 2 18 170° S
Fr, 07.10. 12:00 11 2 22 160° S
Ortszeit Untergrenze Bedeckung Gattung
total tief tief mittel hoch
Fr, 07.10. 14:00 9000 m 6/8 0/8 - - -
Fr, 07.10. 8:00 1470 m 8/8 8/8 - - -
Fr, 07.10. 2:00 1440 m 8/8 8/8 - - -
Do, 06.10. 20:00 1200 m 8/8 8/8 - - -
Do, 06.10. 14:00 900 m 6/8 6/8 - - -
Do, 06.10. 8:00 870 m 8/8 8/8 - - -
Do, 06.10. 2:00 10500 m 5/8 0/8 - - -
Mi, 05.10. 20:00 9000 m 7/8 0/8 - - -
Ortszeit Bedeckungsgrad in Achtel und Wolkenuntergrenze
Fr, 07.10. 15:00 2(1140m) 3(9000m) 5(10500m)
Fr, 07.10. 14:50 2(1140m) 3(9000m) 5(10500m)
Fr, 07.10. 14:40 5
Fr, 07.10. 14:30 6(9000m) 6(9000m) 7(10500m)
Fr, 07.10. 14:20 6(9000m) 6(9000m) 7(10500m)
Fr, 07.10. 14:10 7
Fr, 07.10. 14:00 4(9000m) 4(9000m) 6(10500m)
Fr, 07.10. 13:30 7(9000m) 7(10500m)
Fr, 07.10. 13:00 8(9000m) 8(10500m)
Fr, 07.10. 12:30 8(9000m) 8(10500m)
Fr, 07.10. 12:00 6(9000m)
Ortszeit Luftdruck NN (hPa) Tendenz (hPa in 3 Std.)
Fr, 07.10. 14:00 1023 - 1,9
Fr, 07.10. 8:00 1027 - 1,1
Fr, 07.10. 2:00 1029 - 1,3
Do, 06.10. 20:00 1031 0,0
Do, 06.10. 14:00 1031 + 0,2
Do, 06.10. 8:00 1029 + 2,3
Do, 06.10. 2:00 1025 + 1,3
Mi, 05.10. 20:00 1021 + 1,0
Ortszeit Luftdruck NN (hPa) Tendenz (hPa in 3 Std.)
Fr, 07.10. 15:00 1022 - 2,1
Fr, 07.10. 14:50 1022 keine Meldung
Fr, 07.10. 14:40 1022 keine Meldung
Fr, 07.10. 14:30 1023 - 2,1
Fr, 07.10. 14:20 1023 keine Meldung
Fr, 07.10. 14:10 1023 keine Meldung
Fr, 07.10. 14:00 1023 - 1,9
Fr, 07.10. 13:30 1024 - 1,7
Fr, 07.10. 13:00 1024 - 1,5
Fr, 07.10. 12:30 1024 - 1,2
Fr, 07.10. 12:00 1025 - 1,0
Ortszeit Schneehöhe (cm)
Fr, 07.10. 14:00 0
Fr, 07.10. 8:00 0
Fr, 07.10. 2:00 0
Do, 06.10. 20:00 0
Do, 06.10. 14:00 0
Do, 06.10. 8:00 0
Do, 06.10. 2:00 0
Mi, 05.10. 20:00 0
Ortszeit Schneehöhe (cm)
Fr, 07.10. 15:00 0
Fr, 07.10. 14:50 0
Fr, 07.10. 14:40 0
Fr, 07.10. 14:30 0
Fr, 07.10. 14:20 0
Fr, 07.10. 14:10 0
Fr, 07.10. 14:00 0
Fr, 07.10. 13:30 0
Fr, 07.10. 13:00 0
Fr, 07.10. 12:30 0
Fr, 07.10. 12:00 0
Link zu dieser Seite / Seite empfehlen

Das Wetter in ...